createdAt,value
2022-10-01T00:03:58.868Z,19.76
2022-10-01T00:06:43.758Z,19.91
2022-10-01T00:09:29.092Z,19.76
2022-10-01T00:15:13.523Z,20.16
2022-10-01T00:18:05.923Z,20.26
2022-10-01T00:20:46.366Z,20.35
2022-10-01T00:23:33.603Z,20.49
2022-10-01T00:26:40.278Z,20.66
2022-10-01T00:29:20.383Z,20.72
2022-10-01T00:32:16.192Z,20.65
2022-10-01T00:35:04.395Z,20.76
2022-10-01T00:37:38.582Z,20.63
2022-10-01T00:40:34.518Z,20.53
2022-10-01T00:43:40.231Z,20.28
2022-10-01T00:46:24.879Z,20.16
2022-10-01T00:49:09.717Z,20.10
2022-10-01T00:51:56.188Z,20.00
2022-10-01T00:54:40.904Z,19.97
2022-10-01T01:00:30.932Z,19.59
2022-10-01T01:03:19.344Z,19.87
2022-10-01T01:06:05.332Z,19.77
2022-10-01T01:08:46.255Z,19.82
2022-10-01T01:11:42.743Z,19.80
2022-10-01T01:14:43.417Z,19.86
2022-10-01T01:20:57.561Z,20.03
2022-10-01T01:24:14.880Z,19.78
2022-10-01T01:26:55.394Z,19.90
2022-10-01T01:29:50.845Z,19.72
2022-10-01T01:32:38.579Z,19.97
2022-10-01T01:35:14.078Z,19.78
2022-10-01T01:37:59.388Z,19.17
2022-10-01T01:43:59.489Z,19.08
2022-10-01T01:46:43.818Z,18.88
2022-10-01T01:49:22.923Z,18.77
2022-10-01T01:52:07.876Z,18.66
2022-10-01T01:54:47.424Z,18.59
2022-10-01T01:57:27.318Z,18.51
2022-10-01T02:00:02.823Z,18.52
2022-10-01T02:03:02.772Z,18.38
2022-10-01T02:06:09.639Z,18.13
2022-10-01T02:09:03.607Z,17.91
2022-10-01T02:11:57.495Z,17.68
2022-10-01T02:14:52.337Z,16.89
2022-10-01T02:17:44.131Z,17.20
2022-10-01T02:20:43.749Z,17.03
2022-10-01T02:29:27.778Z,16.64
2022-10-01T02:32:09.648Z,16.43
2022-10-01T02:35:04.745Z,16.43
2022-10-01T02:37:57.389Z,16.22
2022-10-01T02:40:48.305Z,16.02
2022-10-01T02:43:43.180Z,15.91
2022-10-01T02:46:30.039Z,15.69
2022-10-01T02:49:09.381Z,15.52
2022-10-01T02:52:15.380Z,15.38
2022-10-01T02:55:19.714Z,15.06
2022-10-01T02:58:01.645Z,15.27
2022-10-01T03:01:06.557Z,14.95
2022-10-01T03:03:58.402Z,14.81
2022-10-01T03:06:37.759Z,14.66
2022-10-01T03:09:30.286Z,14.58
2022-10-01T03:12:25.918Z,14.47
2022-10-01T03:15:13.566Z,14.51
2022-10-01T03:17:59.250Z,14.35
2022-10-01T03:20:45.319Z,14.12
2022-10-01T03:26:22.112Z,14.18
2022-10-01T03:29:12.614Z,14.37
2022-10-01T03:31:51.249Z,14.22
2022-10-01T03:34:29.305Z,14.24
2022-10-01T03:37:06.516Z,14.12
2022-10-01T03:39:41.883Z,14.12
2022-10-01T03:42:28.245Z,13.96
2022-10-01T03:45:09.182Z,13.93
2022-10-01T03:47:54.619Z,13.94
2022-10-01T03:50:42.227Z,13.77
2022-10-01T03:53:19.845Z,13.75
2022-10-01T03:59:01.479Z,13.78
2022-10-01T04:02:38.392Z,13.86
2022-10-01T04:05:31.569Z,13.86
2022-10-01T04:08:12.385Z,13.67
2022-10-01T04:10:47.851Z,13.48
2022-10-01T04:13:30.652Z,13.35
2022-10-01T04:16:28.365Z,13.38
2022-10-01T04:19:08.889Z,13.32
2022-10-01T04:22:02.574Z,13.32
2022-10-01T04:24:55.797Z,13.25
2022-10-01T04:27:39.608Z,13.16
2022-10-01T04:30:28.146Z,12.92
2022-10-01T04:33:37.595Z,12.98
2022-10-01T04:36:19.322Z,13.01
2022-10-01T04:39:22.198Z,13.20
2022-10-01T04:42:01.199Z,13.21
2022-10-01T04:44:38.827Z,13.09
2022-10-01T04:47:23.694Z,12.90
2022-10-01T04:50:03.024Z,12.75
2022-10-01T04:52:43.970Z,12.57
2022-10-01T04:55:33.734Z,12.40
2022-10-01T04:58:17.282Z,12.39
2022-10-01T05:00:58.543Z,12.28
2022-10-01T05:03:41.212Z,12.15
2022-10-01T05:06:16.689Z,11.95
2022-10-01T05:08:58.940Z,11.84
2022-10-01T05:11:41.186Z,11.65
2022-10-01T05:14:20.016Z,11.01
2022-10-01T05:16:57.343Z,11.40
2022-10-01T05:19:54.797Z,11.33
2022-10-01T05:22:28.748Z,11.16
2022-10-01T05:25:13.683Z,11.05
2022-10-01T05:28:17.186Z,10.76
2022-10-01T05:34:03.837Z,10.54
2022-10-01T05:36:38.860Z,10.39
2022-10-01T05:39:25.712Z,10.37
2022-10-01T05:42:09.532Z,10.17
2022-10-01T05:44:50.255Z,10.05
2022-10-01T05:47:27.826Z,10.04
2022-10-01T05:50:06.931Z,10.04
2022-10-01T05:52:52.260Z,9.94
2022-10-01T05:55:31.599Z,9.79
2022-10-01T05:58:45.134Z,9.84
2022-10-01T06:01:40.122Z,9.69
2022-10-01T06:04:25.125Z,9.61
2022-10-01T06:07:25.538Z,9.57
2022-10-01T06:10:03.459Z,9.42
2022-10-01T06:12:42.874Z,9.46
2022-10-01T06:15:23.755Z,9.52
2022-10-01T06:18:16.111Z,9.51
2022-10-01T06:21:08.382Z,9.53
2022-10-01T06:24:08.452Z,9.45
2022-10-01T06:27:07.141Z,9.49
2022-10-01T06:29:44.006Z,9.48
2022-10-01T06:32:34.796Z,9.45
2022-10-01T06:35:37.160Z,9.44
2022-10-01T06:38:19.164Z,9.18
2022-10-01T06:41:04.759Z,9.48
2022-10-01T06:44:09.503Z,9.49
2022-10-01T06:46:45.660Z,9.48
2022-10-01T06:49:27.420Z,9.50
2022-10-01T06:52:35.966Z,9.50
2022-10-01T06:55:22.282Z,9.48
2022-10-01T06:58:05.035Z,9.12
2022-10-01T07:01:03.779Z,9.41
2022-10-01T07:03:51.395Z,9.45
2022-10-01T07:06:28.876Z,9.44
2022-10-01T07:09:10.922Z,9.33
2022-10-01T07:11:51.063Z,9.46
2022-10-01T07:14:45.346Z,9.52
2022-10-01T07:17:24.939Z,9.55
2022-10-01T07:20:31.597Z,9.57
2022-10-01T07:23:08.107Z,9.50
2022-10-01T07:25:49.750Z,9.45
2022-10-01T07:28:28.995Z,9.41
2022-10-01T07:31:12.822Z,9.40
2022-10-01T07:34:17.163Z,9.33
2022-10-01T07:37:11.069Z,9.39
2022-10-01T07:39:48.941Z,9.35
2022-10-01T07:42:43.601Z,9.31
2022-10-01T07:45:34.017Z,9.17
2022-10-01T07:48:10.944Z,8.77
2022-10-01T07:50:59.964Z,9.14
2022-10-01T07:53:36.493Z,9.21
2022-10-01T07:56:28.611Z,9.23
2022-10-01T07:59:17.574Z,9.14
2022-10-01T08:02:09.819Z,9.21
2022-10-01T08:05:01.036Z,9.15
2022-10-01T08:10:38.794Z,9.07
2022-10-01T08:13:19.783Z,9.03
2022-10-01T08:16:10.284Z,9.02
2022-10-01T08:18:58.011Z,9.02
2022-10-01T08:21:38.234Z,9.02
2022-10-01T08:24:28.779Z,8.99
2022-10-01T08:27:15.575Z,9.00
2022-10-01T08:29:51.683Z,9.05
2022-10-01T08:32:35.723Z,8.99
2022-10-01T08:35:23.394Z,8.95
2022-10-01T08:38:05.199Z,8.94
2022-10-01T08:40:40.849Z,8.74
2022-10-01T08:43:34.516Z,8.87
2022-10-01T08:46:23.851Z,8.95
2022-10-01T08:49:10.950Z,8.83
2022-10-01T08:55:29.861Z,8.71
2022-10-01T08:58:19.589Z,8.41
2022-10-01T09:01:02.145Z,8.87
2022-10-01T09:03:47.007Z,8.86
2022-10-01T09:06:31.270Z,8.79
2022-10-01T09:09:47.389Z,8.78
2022-10-01T09:12:35.054Z,8.73
2022-10-01T09:15:27.919Z,8.67
2022-10-01T09:18:30.969Z,8.64
2022-10-01T09:21:13.978Z,8.66
2022-10-01T09:24:11.822Z,8.63
2022-10-01T09:26:57.056Z,8.46
2022-10-01T09:30:02.868Z,8.54
2022-10-01T09:32:53.657Z,8.55
2022-10-01T09:35:51.000Z,8.58
2022-10-01T09:38:39.195Z,8.61
2022-10-01T09:41:25.565Z,8.54
2022-10-01T09:44:10.479Z,8.51
2022-10-01T09:46:48.314Z,8.45
2022-10-01T09:52:53.140Z,8.42
2022-10-01T09:55:40.735Z,7.93
2022-10-01T09:58:18.865Z,8.40
2022-10-01T10:04:20.149Z,8.48
2022-10-01T10:07:09.496Z,8.48
2022-10-01T10:09:57.712Z,7.93
2022-10-01T10:12:43.448Z,8.28
2022-10-01T10:15:30.559Z,8.42
2022-10-01T10:18:40.405Z,8.27
2022-10-01T10:21:29.843Z,8.43
2022-10-01T10:24:13.742Z,7.95
2022-10-01T10:27:16.419Z,8.28
2022-10-01T10:30:04.917Z,8.39
2022-10-01T10:33:04.350Z,8.38
2022-10-01T10:38:54.074Z,8.45
2022-10-01T10:41:48.212Z,8.33
2022-10-01T10:44:39.039Z,8.46
2022-10-01T10:51:26.697Z,8.38
2022-10-01T10:54:11.855Z,8.38
2022-10-01T10:56:58.275Z,8.16
2022-10-01T10:59:54.763Z,8.37
2022-10-01T11:05:34.645Z,8.09
2022-10-01T11:08:33.176Z,8.02
2022-10-01T11:11:23.508Z,8.16
2022-10-01T11:14:23.997Z,8.22
2022-10-01T11:20:41.991Z,8.19
2022-10-01T11:24:09.711Z,8.16
2022-10-01T11:27:06.826Z,8.12
2022-10-01T11:29:57.898Z,8.12
2022-10-01T11:32:50.545Z,8.04
2022-10-01T11:35:50.963Z,8.11
2022-10-01T11:38:52.988Z,8.10
2022-10-01T11:41:57.592Z,7.92
2022-10-01T11:44:40.919Z,7.77
2022-10-01T11:47:54.021Z,8.01
2022-10-01T11:50:45.256Z,7.89
2022-10-01T11:53:25.772Z,7.84
2022-10-01T11:56:37.519Z,7.85
2022-10-01T11:59:25.421Z,7.75
2022-10-01T12:09:23.104Z,7.88
2022-10-01T12:12:17.944Z,7.81
2022-10-01T12:15:06.695Z,7.65
2022-10-01T12:17:54.355Z,7.88
2022-10-01T12:20:44.391Z,7.90
2022-10-01T12:27:15.782Z,7.96
2022-10-01T12:30:28.363Z,7.80
2022-10-01T12:37:34.877Z,7.75
2022-10-01T12:41:19.387Z,7.63
2022-10-01T12:44:50.879Z,7.73
2022-10-01T12:48:06.683Z,7.74
2022-10-01T12:55:26.511Z,7.71
2022-10-01T13:01:37.161Z,7.68
2022-10-01T13:05:13.616Z,7.73
2022-10-01T13:12:06.013Z,7.74
2022-10-01T13:14:44.903Z,7.78
2022-10-01T13:17:51.506Z,7.82
2022-10-01T13:20:45.263Z,7.83
2022-10-01T13:23:32.596Z,7.87
2022-10-01T13:26:21.544Z,7.84
2022-10-01T13:29:15.492Z,7.82
2022-10-01T13:32:04.400Z,7.83
2022-10-01T13:35:09.727Z,7.86
2022-10-01T13:37:45.998Z,7.89
2022-10-01T13:40:38.267Z,7.87
2022-10-01T13:43:32.517Z,7.45
2022-10-01T13:46:19.981Z,7.86
2022-10-01T13:49:04.515Z,7.86
2022-10-01T13:51:56.864Z,7.85
2022-10-01T13:54:49.039Z,7.84
2022-10-01T14:00:42.127Z,7.82
2022-10-01T14:03:52.283Z,7.76
2022-10-01T14:06:47.429Z,7.82
2022-10-01T14:09:45.285Z,7.73
2022-10-01T14:12:42.853Z,7.71
2022-10-01T14:15:41.012Z,7.69
2022-10-01T14:18:29.434Z,7.61
2022-10-01T14:21:31.990Z,7.62
2022-10-01T14:24:30.314Z,7.62
2022-10-01T14:27:53.670Z,7.47
2022-10-01T14:30:38.664Z,7.39
2022-10-01T14:33:30.915Z,7.48
2022-10-01T14:36:12.148Z,7.43
2022-10-01T14:38:53.290Z,7.37
2022-10-01T14:41:53.475Z,7.39
2022-10-01T14:44:50.066Z,7.37
2022-10-01T14:47:40.791Z,7.34
2022-10-01T14:50:24.375Z,7.26
2022-10-01T14:53:15.480Z,7.26
2022-10-01T14:56:02.648Z,7.23
2022-10-01T15:01:47.408Z,7.32
2022-10-01T15:04:32.316Z,7.38
2022-10-01T15:07:24.364Z,7.39
2022-10-01T15:13:34.378Z,7.15
2022-10-01T15:16:21.663Z,7.19
2022-10-01T15:24:59.759Z,7.24
2022-10-01T15:27:42.077Z,7.17
2022-10-01T15:30:42.622Z,7.21
2022-10-01T15:33:46.950Z,7.17
2022-10-01T15:36:50.894Z,7.08
2022-10-01T15:39:44.221Z,7.05
2022-10-01T15:42:42.609Z,7.02
2022-10-01T15:45:42.614Z,7.03
2022-10-01T15:48:40.084Z,6.56
2022-10-01T15:51:32.980Z,6.95
2022-10-01T15:54:34.011Z,6.96
2022-10-01T15:57:19.250Z,6.95
2022-10-01T16:00:13.812Z,6.91
2022-10-01T16:02:56.096Z,6.80
2022-10-01T16:05:36.230Z,6.83
2022-10-01T16:08:25.751Z,6.68
2022-10-01T16:11:43.651Z,6.16
2022-10-01T16:15:18.794Z,6.76
2022-10-01T16:18:32.548Z,6.72
2022-10-01T16:21:13.031Z,6.63
2022-10-01T16:24:13.686Z,6.78
2022-10-01T16:27:21.709Z,6.83
2022-10-01T16:30:05.837Z,6.87
2022-10-01T16:32:52.446Z,6.95
2022-10-01T16:35:39.281Z,7.05
2022-10-01T16:38:29.963Z,7.09
2022-10-01T16:41:10.332Z,7.14
2022-10-01T16:44:03.485Z,7.19
2022-10-01T16:46:50.990Z,7.19
2022-10-01T16:49:27.445Z,7.22
2022-10-01T16:52:13.582Z,7.23
2022-10-01T16:54:52.511Z,7.25
2022-10-01T16:57:37.963Z,7.30
2022-10-01T17:00:26.586Z,7.32
2022-10-01T17:03:38.464Z,7.26
2022-10-01T17:06:16.582Z,7.30
2022-10-01T17:08:55.610Z,7.37
2022-10-01T17:11:41.577Z,7.41
2022-10-01T17:14:19.883Z,7.39
2022-10-01T17:17:04.198Z,7.41
2022-10-01T17:19:42.809Z,7.43
2022-10-01T17:22:27.086Z,7.42
2022-10-01T17:25:39.088Z,7.46
2022-10-01T17:28:27.460Z,6.83
2022-10-01T17:31:28.327Z,7.42
2022-10-01T17:34:09.856Z,7.38
2022-10-01T17:36:55.216Z,7.33
2022-10-01T17:39:46.396Z,7.34
2022-10-01T17:42:25.621Z,7.31
2022-10-01T17:45:04.860Z,6.61
2022-10-01T17:47:49.195Z,7.06
2022-10-01T17:50:33.586Z,6.89
2022-10-01T17:53:13.679Z,6.85
2022-10-01T17:55:52.804Z,6.80
2022-10-01T17:58:31.030Z,6.81
2022-10-01T18:04:07.881Z,6.73
2022-10-01T18:06:49.258Z,6.71
2022-10-01T18:09:38.236Z,6.70
2022-10-01T18:12:15.256Z,6.77
2022-10-01T18:14:56.347Z,6.80
2022-10-01T18:17:32.081Z,6.80
2022-10-01T18:20:10.311Z,6.47
2022-10-01T18:22:50.083Z,6.67
2022-10-01T18:25:55.295Z,6.75
2022-10-01T18:28:35.041Z,6.69
2022-10-01T18:31:31.209Z,6.72
2022-10-01T18:37:29.978Z,6.36
2022-10-01T18:46:38.359Z,6.44
2022-10-01T18:49:26.631Z,6.36
2022-10-01T18:52:21.403Z,6.25
2022-10-01T18:55:46.610Z,6.16
2022-10-01T18:58:52.576Z,6.11
2022-10-01T19:01:46.035Z,6.12
2022-10-01T19:05:13.594Z,6.10
2022-10-01T19:08:07.096Z,6.01
2022-10-01T19:11:04.682Z,6.07
2022-10-01T19:13:41.920Z,6.05
2022-10-01T19:16:47.046Z,6.19
2022-10-01T19:19:46.133Z,6.21
2022-10-01T19:22:46.016Z,6.28
2022-10-01T19:25:35.110Z,6.27
2022-10-01T19:28:40.687Z,6.32
2022-10-01T19:31:34.748Z,6.39
2022-10-01T19:34:31.689Z,6.27
2022-10-01T19:37:30.956Z,6.29
2022-10-01T19:40:10.032Z,6.37
2022-10-01T19:43:04.556Z,6.42
2022-10-01T19:45:51.081Z,6.48
2022-10-01T19:48:40.703Z,6.53
2022-10-01T19:51:26.606Z,6.53
2022-10-01T19:54:19.910Z,6.62
2022-10-01T19:57:06.271Z,6.64
2022-10-01T19:59:52.374Z,6.75
2022-10-01T20:02:40.507Z,6.79
2022-10-01T20:05:25.288Z,6.73
2022-10-01T20:08:31.632Z,6.66
2022-10-01T20:11:29.634Z,6.53
2022-10-01T20:14:41.443Z,6.41
2022-10-01T20:17:52.655Z,6.52
2022-10-01T20:20:58.787Z,6.55
2022-10-01T20:23:59.114Z,6.51
2022-10-01T20:26:49.267Z,6.23
2022-10-01T20:29:47.629Z,6.10
2022-10-01T20:32:27.376Z,6.30
2022-10-01T20:35:21.864Z,6.30
2022-10-01T20:38:12.159Z,6.15
2022-10-01T20:43:56.112Z,6.08
2022-10-01T20:46:43.150Z,5.90
2022-10-01T20:49:43.831Z,5.76
2022-10-01T20:52:49.377Z,5.16
2022-10-01T20:55:47.579Z,5.72
2022-10-01T20:58:30.799Z,5.58
2022-10-01T21:01:16.605Z,5.36
2022-10-01T21:04:11.526Z,5.47
2022-10-01T21:07:10.535Z,5.28
2022-10-01T21:09:56.750Z,5.40
2022-10-01T21:12:56.088Z,5.27
2022-10-01T21:15:38.851Z,5.32
2022-10-01T21:18:30.263Z,5.25
2022-10-01T21:21:16.383Z,5.30
2022-10-01T21:24:10.014Z,5.29
2022-10-01T21:26:56.470Z,5.35
2022-10-01T21:30:06.138Z,5.31
2022-10-01T21:33:21.060Z,5.27
2022-10-01T21:36:08.222Z,4.85
2022-10-01T21:39:12.190Z,5.34
2022-10-01T21:45:18.705Z,5.53
2022-10-01T21:51:38.679Z,5.87
2022-10-01T21:54:35.542Z,6.07
2022-10-01T21:57:47.353Z,6.29
2022-10-01T22:00:51.044Z,6.50
2022-10-01T22:03:51.944Z,6.75
2022-10-01T22:06:41.943Z,7.02
2022-10-01T22:09:39.084Z,7.23
2022-10-01T22:12:29.312Z,7.46
2022-10-01T22:15:29.199Z,7.66
2022-10-01T22:18:12.546Z,7.78
2022-10-01T22:21:01.251Z,7.84
2022-10-01T22:23:55.017Z,8.10
2022-10-01T22:26:35.126Z,8.12
2022-10-01T22:29:19.523Z,8.33
2022-10-01T22:32:02.807Z,8.55
2022-10-01T22:34:49.862Z,8.63
2022-10-01T22:37:41.018Z,8.25
2022-10-01T22:40:32.055Z,8.56
2022-10-01T22:43:19.075Z,8.46
2022-10-01T22:46:27.616Z,8.38
2022-10-01T22:49:16.238Z,8.41
2022-10-01T22:52:13.334Z,8.77
2022-10-01T22:55:21.256Z,8.80
2022-10-01T22:58:30.146Z,8.77
2022-10-01T23:01:14.225Z,8.93
2022-10-01T23:04:15.886Z,9.05
2022-10-01T23:07:04.056Z,9.17
2022-10-01T23:09:55.481Z,9.06
2022-10-01T23:12:52.544Z,9.16
2022-10-01T23:15:41.208Z,9.18
2022-10-01T23:18:45.585Z,9.37
2022-10-01T23:21:38.748Z,9.40
2022-10-01T23:24:30.965Z,9.22
2022-10-01T23:27:31.533Z,9.50
2022-10-01T23:30:31.491Z,9.57
2022-10-01T23:33:19.124Z,9.62
2022-10-01T23:36:15.972Z,9.71
2022-10-01T23:39:20.934Z,9.86
2022-10-01T23:42:15.439Z,9.97
2022-10-01T23:45:04.298Z,9.70
2022-10-01T23:47:57.956Z,9.80
2022-10-01T23:50:46.140Z,9.68
2022-10-01T23:53:34.334Z,9.53
2022-10-01T23:59:36.567Z,9.71
